Time;durP1;ratioP1;P1;durP2;ratioP2;P2;SDS_P1;SDS_P2;PMS_P1;PMS_P2;Temp;Humidity;BMP_temperature;BMP_pressure;BME280_temperature;BME280_humidity;BME280_pressure;Samples;Min_cycle;Max_cycle;Signal;HPM_P1;HPM_P2
2024/02/27 00:01:59;;;;;;;29.83;17.53;;;7.30;99.90;;;;;;4160523;28;20037;-62
2024/02/27 00:04:02;;;;;;;32.87;16.17;;;7.30;99.90;;;;;;4161505;28;20054;-61
2024/02/27 00:06:04;;;;;;;32.20;17.07;;;7.30;99.90;;;;;;4160769;28;20067;-62
2024/02/27 00:08:07;;;;;;;29.87;17.07;;;7.30;99.90;;;;;;4161130;28;20093;-63
2024/02/27 00:10:10;;;;;;;33.70;16.93;;;7.30;99.90;;;;;;4160511;28;20087;-60
2024/02/27 00:12:12;;;;;;;29.60;17.90;;;7.20;99.90;;;;;;4160872;28;20468;-61
2024/02/27 00:14:13;;;;;;;34.07;18.70;;;7.20;99.90;;;;;;4161982;28;20381;-58
2024/02/27 00:16:18;;;;;;;29.73;17.67;;;7.10;99.90;;;;;;4160242;28;20033;-59
2024/02/27 00:18:20;;;;;;;31.37;18.37;;;7.00;99.90;;;;;;4143932;28;20084;-62
2024/02/27 00:20:21;;;;;;;33.90;18.70;;;7.00;99.90;;;;;;4160899;28;20038;-61
2024/02/27 00:22:22;;;;;;;29.97;17.90;;;6.90;99.90;;;;;;4160843;28;20045;-59
2024/02/27 00:24:23;;;;;;;33.70;18.73;;;6.90;99.90;;;;;;4159956;28;20057;-61
2024/02/27 00:26:25;;;;;;;30.13;18.20;;;6.80;99.90;;;;;;4161441;28;20107;-60
2024/02/27 00:28:26;;;;;;;34.57;18.43;;;6.80;99.90;;;;;;4159710;28;20509;-61
2024/02/27 00:30:27;;;;;;;32.23;18.57;;;6.80;99.90;;;;;;4161406;28;20444;-55
2024/02/27 00:32:28;;;;;;;32.77;18.57;;;6.70;99.90;;;;;;4160347;28;20041;-56
2024/02/27 00:34:30;;;;;;;31.73;17.33;;;6.70;99.90;;;;;;4160416;28;20034;-59
2024/02/27 00:36:31;;;;;;;32.60;18.53;;;6.60;99.90;;;;;;4160804;28;20052;-59
2024/02/27 00:38:32;;;;;;;30.77;17.10;;;6.60;99.90;;;;;;4160719;28;20444;-60
2024/02/27 00:40:34;;;;;;;33.50;18.70;;;6.60;99.90;;;;;;4160923;28;20543;-58
2024/02/27 00:42:35;;;;;;;29.17;18.13;;;6.60;99.90;;;;;;4161574;28;20029;-61
2024/02/27 00:44:38;;;;;;;38.47;18.43;;;6.50;99.90;;;;;;4160308;28;20095;-55
2024/02/27 00:46:39;;;;;;;36.73;18.73;;;6.50;99.90;;;;;;4160140;28;20096;-61
2024/02/27 00:48:40;;;;;;;31.77;17.53;;;6.50;99.90;;;;;;4161776;28;20042;-61
2024/02/27 00:50:42;;;;;;;33.07;18.40;;;6.50;99.90;;;;;;4160916;28;20038;-58
2024/02/27 00:52:43;;;;;;;33.90;18.90;;;6.40;99.90;;;;;;4161800;28;20103;-60
2024/02/27 00:54:45;;;;;;;30.27;17.83;;;6.40;99.90;;;;;;4160646;28;20367;-61
2024/02/27 00:56:46;;;;;;;33.47;19.03;;;6.40;99.90;;;;;;4162370;28;20026;-60
2024/02/27 00:58:47;;;;;;;32.57;19.93;;;6.30;99.90;;;;;;4160307;28;20037;-62
2024/02/27 01:00:49;;;;;;;35.37;19.13;;;6.30;99.90;;;;;;4162131;28;20029;-53
2024/02/27 01:02:50;;;;;;;31.73;18.37;;;6.30;99.90;;;;;;4159969;28;20506;-61
2024/02/27 01:04:51;;;;;;;31.50;17.30;;;6.20;99.90;;;;;;4161147;28;20099;-59
2024/02/27 01:06:52;;;;;;;32.13;18.53;;;6.20;99.90;;;;;;4159951;28;20083;-62
2024/02/27 01:08:54;;;;;;;35.17;17.50;;;6.20;99.90;;;;;;4161767;28;20038;-62
2024/02/27 01:10:56;;;;;;;37.77;18.47;;;6.20;99.90;;;;;;4160869;28;20480;-62
2024/02/27 01:12:58;;;;;;;35.37;18.93;;;6.30;99.90;;;;;;4144656;28;20084;-61
2024/02/27 01:14:59;;;;;;;35.03;17.33;;;6.20;99.90;;;;;;4160026;28;20060;-60
2024/02/27 01:17:00;;;;;;;34.07;17.60;;;6.30;99.90;;;;;;4160657;28;20029;-60
2024/02/27 01:19:01;;;;;;;30.57;16.93;;;6.30;99.90;;;;;;4160436;28;20103;-61
2024/02/27 01:21:05;;;;;;;32.23;17.67;;;6.30;99.90;;;;;;4160580;28;20038;-61
2024/02/27 01:23:06;;;;;;;30.53;16.43;;;6.30;99.90;;;;;;4160973;28;20441;-61
2024/02/27 01:25:11;;;;;;;30.07;17.40;;;6.30;99.90;;;;;;4160346;28;20037;-61
2024/02/27 01:27:12;;;;;;;34.33;17.50;;;6.30;99.90;;;;;;4161963;28;20042;-61
2024/02/27 01:29:13;;;;;;;30.07;17.03;;;6.30;99.90;;;;;;4159743;28;20045;-62
2024/02/27 01:31:15;;;;;;;27.70;14.77;;;6.30;99.90;;;;;;4161116;28;20033;-62
2024/02/27 01:33:16;;;;;;;29.80;16.17;;;6.40;99.90;;;;;;4159724;28;20034;-59
2024/02/27 01:35:18;;;;;;;26.77;15.03;;;6.30;99.90;;;;;;4161569;28;20064;-62
2024/02/27 01:37:19;;;;;;;34.07;17.17;;;6.40;99.90;;;;;;4160242;28;20517;-58
2024/02/27 01:39:20;;;;;;;31.43;16.33;;;6.30;99.90;;;;;;4160543;28;20045;-61
2024/02/27 01:41:22;;;;;;;34.37;17.37;;;6.30;99.90;;;;;;4160350;28;20063;-63
2024/02/27 01:43:24;;;;;;;27.97;16.50;;;6.30;99.90;;;;;;4161086;28;20042;-62
2024/02/27 01:45:26;;;;;;;38.53;18.70;;;6.30;99.90;;;;;;4159816;28;20555;-61
2024/02/27 01:47:27;;;;;;;34.60;18.93;;;6.30;99.90;;;;;;4159684;28;20107;-62
2024/02/27 01:49:28;;;;;;;30.83;18.07;;;6.30;99.90;;;;;;4160992;28;20030;-62
2024/02/27 01:51:31;;;;;;;34.93;18.30;;;6.30;99.90;;;;;;4159706;28;20033;-57
2024/02/27 01:53:33;;;;;;;35.20;18.57;;;6.30;99.90;;;;;;4160490;28;20042;-62
2024/02/27 01:55:35;;;;;;;37.37;19.10;;;6.20;99.90;;;;;;4159913;28;20034;-62
2024/02/27 01:57:37;;;;;;;34.50;18.77;;;6.10;99.90;;;;;;4161519;28;20041;-58
2024/02/27 01:59:41;;;;;;;37.67;20.07;;;6.10;99.90;;;;;;4160145;28;20107;-63
2024/02/27 02:01:43;;;;;;;37.90;19.13;;;6.10;99.90;;;;;;4161026;28;20099;-61
2024/02/27 02:03:46;;;;;;;35.30;18.07;;;6.10;99.90;;;;;;4159360;28;20057;-61
2024/02/27 02:05:47;;;;;;;32.97;18.40;;;6.00;99.90;;;;;;4160560;28;20029;-61
2024/02/27 02:07:49;;;;;;;30.43;17.80;;;6.00;99.90;;;;;;4158900;28;20041;-62
2024/02/27 02:09:50;;;;;;;35.90;18.13;;;6.00;99.90;;;;;;4160299;28;20042;-62
2024/02/27 02:11:52;;;;;;;34.07;17.97;;;5.90;99.90;;;;;;4159208;28;20045;-62
2024/02/27 02:13:53;;;;;;;29.40;17.70;;;5.90;99.90;;;;;;4161050;28;20119;-61
2024/02/27 02:15:55;;;;;;;36.33;18.33;;;5.90;99.90;;;;;;4163289;28;20544;-63
2024/02/27 02:17:56;;;;;;;34.23;17.07;;;5.90;99.90;;;;;;4163833;28;20307;-62
2024/02/27 02:19:57;;;;;;;30.73;17.10;;;5.80;99.90;;;;;;4163141;28;20038;-60
2024/02/27 02:21:58;;;;;;;32.23;15.90;;;5.80;99.90;;;;;;4162104;28;20041;-60
2024/02/27 02:24:02;;;;;;;28.67;16.70;;;5.80;99.90;;;;;;4163134;28;20107;-61
2024/02/27 02:26:03;;;;;;;31.60;16.90;;;5.80;99.90;;;;;;4163012;28;20053;-61
2024/02/27 02:28:05;;;;;;;32.60;17.90;;;5.70;99.90;;;;;;4164204;28;20496;-61
2024/02/27 02:30:07;;;;;;;35.00;18.60;;;5.70;99.90;;;;;;4161850;28;20033;-60
2024/02/27 02:32:08;;;;;;;31.60;17.43;;;5.60;99.90;;;;;;4162315;28;20046;-62
2024/02/27 02:34:09;;;;;;;31.57;16.97;;;5.60;99.90;;;;;;4161359;28;20539;-59
2024/02/27 02:36:10;;;;;;;30.00;16.97;;;5.60;99.90;;;;;;4163157;28;20034;-62
2024/02/27 02:38:12;;;;;;;71.70;37.80;;;5.60;99.90;;;;;;4162544;28;20087;-62
2024/02/27 02:40:14;;;;;;;100.90;51.40;;;5.50;99.90;;;;;;4163502;28;20033;-62
2024/02/27 02:42:16;;;;;;;54.37;29.13;;;5.50;99.90;;;;;;4162687;28;20523;-62
2024/02/27 02:44:17;;;;;;;49.13;28.50;;;5.50;99.90;;;;;;4163582;28;20033;-58
2024/02/27 02:46:18;;;;;;;77.57;45.77;;;5.50;99.90;;;;;;4162491;28;20414;-59
2024/02/27 02:48:19;;;;;;;130.23;75.37;;;5.50;99.90;;;;;;4162463;28;20041;-62
2024/02/27 02:50:21;;;;;;;234.80;119.50;;;5.40;99.90;;;;;;4162634;28;20025;-62
2024/02/27 02:52:24;;;;;;;160.53;89.23;;;5.40;99.90;;;;;;4161600;28;20091;-63
2024/02/27 02:54:25;;;;;;;109.00;58.93;;;5.40;99.90;;;;;;4161639;28;20050;-60
2024/02/27 02:56:28;;;;;;;75.73;43.10;;;5.40;99.90;;;;;;4161514;28;20144;-62
2024/02/27 02:58:29;;;;;;;178.10;90.17;;;5.40;99.90;;;;;;4163253;28;20551;-61
2024/02/27 03:00:30;;;;;;;193.67;100.40;;;5.30;99.90;;;;;;4161377;28;20095;-62
2024/02/27 03:02:32;;;;;;;252.37;124.20;;;5.40;99.90;;;;;;4163248;28;20025;-62
2024/02/27 03:04:33;;;;;;;231.43;115.10;;;5.40;99.90;;;;;;4161865;28;20033;-60
2024/02/27 03:06:34;;;;;;;88.50;46.23;;;5.40;99.90;;;;;;4162438;28;20880;-61
2024/02/27 03:08:35;;;;;;;69.67;40.20;;;5.40;99.90;;;;;;4161611;28;20079;-61
2024/02/27 03:10:37;;;;;;;70.97;39.80;;;5.30;99.90;;;;;;4162494;28;20064;-62
2024/02/27 03:12:39;;;;;;;69.77;37.83;;;5.30;99.90;;;;;;4161483;28;20164;-59
2024/02/27 03:14:47;;;;;;;61.83;35.03;;;5.40;99.90;;;;;;4163039;28;20026;-61
2024/02/27 03:16:48;;;;;;;60.13;32.33;;;5.40;99.90;;;;;;4161267;28;20033;-61
2024/02/27 03:18:50;;;;;;;56.77;30.67;;;5.40;99.90;;;;;;4162246;28;20084;-62
2024/02/27 03:20:51;;;;;;;54.93;30.17;;;5.30;99.90;;;;;;4161632;28;20080;-61
2024/02/27 03:22:52;;;;;;;55.13;30.57;;;5.30;99.90;;;;;;4162771;28;20497;-61
2024/02/27 03:24:53;;;;;;;47.47;26.57;;;5.30;99.90;;;;;;4161113;28;20053;-62
2024/02/27 03:26:55;;;;;;;52.63;28.37;;;5.30;99.90;;;;;;4162201;28;20571;-62
2024/02/27 03:28:57;;;;;;;46.63;22.97;;;5.20;99.90;;;;;;4161943;28;20033;-61
2024/02/27 03:30:58;;;;;;;35.27;19.60;;;5.20;99.90;;;;;;4161244;28;20397;-62
2024/02/27 03:33:00;;;;;;;43.03;23.63;;;5.20;99.90;;;;;;4162052;28;20076;-62
2024/02/27 03:35:01;;;;;;;70.93;38.47;;;5.10;99.90;;;;;;4161137;28;20437;-62
2024/02/27 03:37:02;;;;;;;100.93;51.57;;;5.10;99.90;;;;;;4162147;28;20033;-62
2024/02/27 03:39:03;;;;;;;58.03;30.13;;;5.10;99.90;;;;;;4161097;28;20034;-59
2024/02/27 03:41:05;;;;;;;40.43;21.63;;;5.10;99.90;;;;;;4162761;28;20369;-61
2024/02/27 03:43:06;;;;;;;35.10;18.27;;;5.10;99.90;;;;;;4160928;28;20042;-62
2024/02/27 03:45:10;;;;;;;31.07;17.33;;;5.00;99.90;;;;;;4163147;28;20029;-62
2024/02/27 03:47:14;;;;;;;28.07;14.97;;;5.00;99.90;;;;;;4161621;28;20087;-62
2024/02/27 03:49:15;;;;;;;31.23;17.23;;;5.00;99.90;;;;;;4144907;28;20042;-61
2024/02/27 03:51:16;;;;;;;31.53;15.60;;;5.00;99.90;;;;;;4160363;28;20045;-61
2024/02/27 03:53:17;;;;;;;31.10;16.23;;;5.00;99.90;;;;;;4161738;28;20095;-61
2024/02/27 03:55:18;;;;;;;28.67;15.13;;;4.90;99.90;;;;;;4143907;28;20034;-61
2024/02/27 03:57:20;;;;;;;37.27;17.53;;;4.90;99.90;;;;;;4144379;28;20088;-61
2024/02/27 03:59:21;;;;;;;34.63;18.77;;;4.90;99.90;;;;;;4161785;28;20025;-62
2024/02/27 04:01:23;;;;;;;36.53;20.43;;;4.90;99.90;;;;;;4160401;28;20497;-62
2024/02/27 04:03:25;;;;;;;38.17;19.77;;;4.80;99.90;;;;;;4162426;28;20560;-62
2024/02/27 04:05:26;;;;;;;36.83;19.40;;;4.80;99.90;;;;;;4160569;28;20100;-60
2024/02/27 04:07:27;;;;;;;42.43;20.37;;;4.80;99.90;;;;;;4161818;28;20050;-59
2024/02/27 04:09:29;;;;;;;39.13;21.40;;;4.70;99.90;;;;;;4161085;28;20034;-62
2024/02/27 04:11:30;;;;;;;43.97;19.73;;;4.70;99.90;;;;;;4162248;28;20087;-61
2024/02/27 04:13:32;;;;;;;47.53;25.07;;;4.70;99.90;;;;;;4175376;28;20079;-52
2024/02/27 04:15:33;;;;;;;50.13;23.57;;;4.60;99.90;;;;;;4161817;28;20387;-58
2024/02/27 04:17:34;;;;;;;46.70;21.17;;;4.50;99.90;;;;;;4160922;28;20554;-54
2024/02/27 04:19:35;;;;;;;44.83;23.47;;;4.50;99.90;;;;;;4161674;28;20099;-57
2024/02/27 04:21:37;;;;;;;42.83;21.73;;;4.40;99.90;;;;;;4159046;28;20446;-55
2024/02/27 04:23:38;;;;;;;43.37;22.30;;;4.40;99.90;;;;;;4160664;28;20416;-61
2024/02/27 04:25:39;;;;;;;42.60;21.87;;;4.40;99.90;;;;;;4161009;28;20049;-54
2024/02/27 04:27:41;;;;;;;40.53;20.17;;;4.40;99.90;;;;;;4160398;28;20340;-58
2024/02/27 04:29:42;;;;;;;43.00;21.37;;;4.40;99.90;;;;;;4159520;28;20267;-58
2024/02/27 04:31:46;;;;;;;40.90;21.97;;;4.40;99.90;;;;;;4160275;28;20703;-60
2024/02/27 04:33:47;;;;;;;40.47;19.77;;;4.30;99.90;;;;;;4161340;28;21131;-59
2024/02/27 04:35:49;;;;;;;36.70;19.77;;;4.40;99.90;;;;;;4158334;28;20349;-59
2024/02/27 04:37:50;;;;;;;33.00;18.87;;;4.30;99.90;;;;;;4160684;28;20099;-60
2024/02/27 04:39:52;;;;;;;35.40;18.23;;;4.30;99.90;;;;;;4159684;28;20041;-60
2024/02/27 04:41:55;;;;;;;30.43;17.33;;;4.30;99.90;;;;;;4161526;28;20671;-57
2024/02/27 04:43:56;;;;;;;33.43;19.20;;;4.40;99.90;;;;;;4158884;28;20317;-59
2024/02/27 04:45:57;;;;;;;40.70;19.60;;;4.40;99.90;;;;;;4160597;28;20303;-57
2024/02/27 04:48:00;;;;;;;37.73;19.33;;;4.40;99.90;;;;;;4160422;28;20458;-56
2024/02/27 04:50:01;;;;;;;32.93;17.63;;;4.40;99.90;;;;;;4161645;28;20267;-59
2024/02/27 04:52:03;;;;;;;40.27;20.67;;;4.40;99.90;;;;;;4159077;28;20033;-58
2024/02/27 04:54:04;;;;;;;43.93;22.43;;;4.40;99.90;;;;;;4160678;28;20433;-63
2024/02/27 04:56:06;;;;;;;45.07;21.40;;;4.40;99.90;;;;;;4160879;28;20254;-60
2024/02/27 04:58:07;;;;;;;47.40;25.03;;;4.40;99.90;;;;;;4161384;28;20103;-60
2024/02/27 05:00:09;;;;;;;49.07;24.40;;;4.40;99.90;;;;;;4160205;28;20274;-56
2024/02/27 05:02:11;;;;;;;51.23;25.27;;;4.30;99.90;;;;;;4159090;28;20480;-62
2024/02/27 05:04:12;;;;;;;57.63;28.13;;;4.30;99.90;;;;;;4160204;28;20746;-62
2024/02/27 05:06:13;;;;;;;55.40;27.97;;;4.20;99.90;;;;;;4160351;28;20305;-62
2024/02/27 05:08:14;;;;;;;59.10;28.10;;;4.20;99.90;;;;;;4160355;28;20333;-61
2024/02/27 05:10:16;;;;;;;50.87;27.13;;;4.30;99.90;;;;;;4159488;28;20267;-58
2024/02/27 05:12:17;;;;;;;55.23;26.67;;;4.30;99.90;;;;;;4161255;28;20274;-63
2024/02/27 05:14:18;;;;;;;50.00;26.47;;;4.30;99.90;;;;;;4159938;28;20313;-52
2024/02/27 05:16:20;;;;;;;53.57;25.77;;;4.30;99.90;;;;;;4160674;28;20324;-62
2024/02/27 05:18:21;;;;;;;47.90;25.17;;;4.30;99.90;;;;;;4159588;28;20738;-61
2024/02/27 05:20:22;;;;;;;47.97;24.97;;;4.30;99.90;;;;;;4160831;28;20672;-62
2024/02/27 05:22:23;;;;;;;51.73;25.00;;;4.30;99.90;;;;;;4160322;28;20092;-60
2024/02/27 05:24:25;;;;;;;50.87;24.10;;;4.40;99.90;;;;;;4160223;28;20042;-58
2024/02/27 05:26:27;;;;;;;56.10;26.43;;;4.40;99.90;;;;;;4159289;28;20364;-63
2024/02/27 05:28:28;;;;;;;47.17;24.27;;;4.40;99.90;;;;;;4160660;28;20767;-62
2024/02/27 05:30:30;;;;;;;46.07;23.70;;;4.40;99.90;;;;;;4159337;28;20445;-61
2024/02/27 05:32:31;;;;;;;43.17;22.70;;;4.40;99.90;;;;;;4160488;28;20317;-63
2024/02/27 05:34:32;;;;;;;38.03;21.00;;;4.50;99.90;;;;;;4159824;28;20091;-61
2024/02/27 05:36:34;;;;;;;47.27;23.27;;;4.50;99.90;;;;;;4160030;28;20090;-63
2024/02/27 05:38:35;;;;;;;51.87;22.73;;;4.60;99.90;;;;;;4160577;28;20437;-63
2024/02/27 05:40:36;;;;;;;42.70;20.77;;;4.60;99.90;;;;;;4140424;28;20342;-54
2024/02/27 05:42:37;;;;;;;41.40;21.03;;;4.70;99.90;;;;;;4160041;28;20045;-59
2024/02/27 05:44:40;;;;;;;44.87;20.60;;;4.80;99.90;;;;;;4159268;28;20034;-63
2024/02/27 05:46:41;;;;;;;40.53;20.60;;;5.00;99.90;;;;;;4160437;28;20041;-63
2024/02/27 05:48:43;;;;;;;34.43;19.20;;;5.10;99.90;;;;;;4162315;28;20029;-62
2024/02/27 05:50:45;;;;;;;45.60;20.70;;;5.30;99.90;;;;;;4163920;28;20139;-60
2024/02/27 05:52:47;;;;;;;34.93;20.53;;;5.50;99.90;;;;;;4162821;28;20062;-59
2024/02/27 05:54:50;;;;;;;42.70;20.37;;;5.80;99.90;;;;;;4163750;28;20045;-62
2024/02/27 05:56:51;;;;;;;36.50;19.70;;;5.90;99.90;;;;;;4162446;28;20087;-55
2024/02/27 05:58:53;;;;;;;36.87;21.03;;;6.20;99.90;;;;;;4163180;28;20033;-55
2024/02/27 06:00:56;;;;;;;33.07;20.00;;;6.40;99.90;;;;;;4162300;28;20055;-64
2024/02/27 06:02:57;;;;;;;43.10;20.67;;;6.70;99.90;;;;;;4163181;28;20083;-61
2024/02/27 06:04:58;;;;;;;42.47;22.07;;;7.10;99.90;;;;;;4163144;28;20072;-60
2024/02/27 06:07:00;;;;;;;55.93;24.23;;;7.40;99.90;;;;;;4162156;28;20087;-62
2024/02/27 06:09:03;;;;;;;58.47;27.97;;;7.70;99.90;;;;;;4161599;28;20049;-63
2024/02/27 06:11:04;;;;;;;56.53;26.00;;;7.90;99.90;;;;;;4161464;28;20042;-56
2024/02/27 06:13:06;;;;;;;43.73;26.07;;;8.10;99.90;;;;;;4162916;28;20037;-61
2024/02/27 06:15:07;;;;;;;52.50;29.80;;;8.30;99.90;;;;;;4161695;28;20460;-59
2024/02/27 06:17:09;;;;;;;57.17;30.40;;;8.50;99.90;;;;;;4162769;28;20046;-56
2024/02/27 06:19:10;;;;;;;53.30;32.10;;;8.80;99.90;;;;;;4162218;28;20078;-59
2024/02/27 06:23:33;;;;;;;46.70;23.80;;;9.50;99.90;;;;;;4162925;28;20068;-65
2024/02/27 06:25:34;;;;;;;50.40;22.97;;;9.90;99.90;;;;;;4163472;28;20504;-55
2024/02/27 06:27:35;;;;;;;36.77;20.73;;;10.30;99.90;;;;;;4161730;28;20045;-57
2024/02/27 06:29:36;;;;;;;38.23;21.00;;;10.50;99.90;;;;;;4163390;28;20377;-55
2024/02/27 06:31:38;;;;;;;34.10;20.73;;;10.80;99.90;;;;;;4162331;28;20041;-59
2024/02/27 06:33:39;;;;;;;35.97;20.07;;;11.20;99.90;;;;;;4163409;28;20041;-64
2024/02/27 06:35:41;;;;;;;39.60;18.77;;;11.40;99.90;;;;;;4162024;28;20087;-60
2024/02/27 06:37:42;;;;;;;34.80;18.47;;;11.70;99.90;;;;;;4144914;28;20105;-64
2024/02/27 06:39:43;;;;;;;29.60;17.13;;;11.90;99.90;;;;;;4162559;28;20041;-61
2024/02/27 06:41:50;;;;;;;32.87;16.73;;;11.90;99.90;;;;;;4161880;28;20489;-63
2024/02/27 06:43:51;;;;;;;39.80;22.17;;;12.10;99.90;;;;;;4162724;28;20458;-59
2024/02/27 06:45:52;;;;;;;38.63;21.87;;;12.30;99.90;;;;;;4162099;28;20041;-64
2024/02/27 06:47:53;;;;;;;53.93;32.93;;;12.70;99.90;;;;;;4162282;28;20780;-58
2024/02/27 06:49:58;;;;;;;49.47;26.13;;;12.90;99.90;;;;;;4161760;28;20038;-63
2024/02/27 06:51:59;;;;;;;39.37;22.43;;;13.10;99.90;;;;;;4162571;28;20488;-63
2024/02/27 06:54:00;;;;;;;36.37;16.83;;;13.30;99.90;;;;;;4161315;28;20034;-63
2024/02/27 06:56:03;;;;;;;26.37;14.87;;;13.60;99.90;;;;;;4162842;28;20423;-62
2024/02/27 06:58:05;;;;;;;31.03;13.70;;;13.50;99.90;;;;;;4161974;28;20079;-62
2024/02/27 07:00:07;;;;;;;29.73;15.23;;;13.50;99.90;;;;;;4162427;28;20060;-56
2024/02/27 07:02:08;;;;;;;28.30;15.53;;;13.40;99.90;;;;;;4161032;28;20099;-54
2024/02/27 07:04:10;;;;;;;27.70;15.50;;;13.30;99.90;;;;;;4162664;28;20041;-63
2024/02/27 07:06:11;;;;;;;24.23;14.80;;;13.20;99.90;;;;;;4161167;28;21459;-59
2024/02/27 07:08:13;;;;;;;27.97;16.53;;;13.40;99.90;;;;;;4163126;28;20060;-63
2024/02/27 07:10:14;;;;;;;27.00;17.13;;;13.70;99.90;;;;;;4161914;28;20520;-62
2024/02/27 07:12:15;;;;;;;30.93;16.17;;;13.60;99.90;;;;;;4161968;28;20025;-61
2024/02/27 07:14:16;;;;;;;27.60;16.87;;;13.60;99.90;;;;;;4161772;28;20045;-59
2024/02/27 07:16:18;;;;;;;26.77;16.90;;;13.60;99.90;;;;;;4161789;28;20071;-63
2024/02/27 07:18:19;;;;;;;28.27;15.77;;;13.70;99.90;;;;;;4161739;28;20508;-62
2024/02/27 07:20:21;;;;;;;37.53;17.33;;;13.70;99.90;;;;;;4161126;28;20107;-60
2024/02/27 07:22:22;;;;;;;29.47;16.00;;;13.80;99.90;;;;;;4162722;28;20029;-57
2024/02/27 07:24:23;;;;;;;28.60;15.83;;;14.00;99.90;;;;;;4161431;28;20055;-62
2024/02/27 07:26:24;;;;;;;23.27;14.73;;;14.30;99.90;;;;;;4162762;28;20111;-64
2024/02/27 07:28:25;;;;;;;25.90;14.10;;;14.60;99.90;;;;;;4160528;28;20659;-63
2024/02/27 07:30:27;;;;;;;23.70;13.63;;;14.50;99.90;;;;;;4162512;28;20071;-62
2024/02/27 07:32:28;;;;;;;22.73;13.30;;;14.50;99.90;;;;;;4160485;28;20041;-63
2024/02/27 07:34:29;;;;;;;19.40;13.23;;;14.80;99.90;;;;;;4161853;28;20037;-58
2024/02/27 07:36:30;;;;;;;21.38;13.20;;;14.70;99.90;;;;;;4160446;28;20079;-57
2024/02/27 07:38:32;;;;;;;25.45;13.77;;;14.70;99.90;;;;;;4161768;28;20397;-59
2024/02/27 07:40:33;;;;;;;24.20;13.23;;;14.80;99.90;;;;;;4161199;28;20068;-62
2024/02/27 07:42:34;;;;;;;22.00;14.15;;;14.60;99.90;;;;;;4161253;28;20133;-60
2024/02/27 07:44:35;;;;;;;22.25;12.90;;;14.20;99.90;;;;;;4161124;28;20104;-63
2024/02/27 07:46:36;;;;;;;26.33;15.30;;;13.60;99.90;;;;;;4161091;28;20443;-63
2024/02/27 07:48:37;;;;;;;26.13;14.00;;;13.10;99.90;;;;;;4161039;28;20108;-62
2024/02/27 07:50:40;;;;;;;20.73;12.87;;;12.90;99.90;;;;;;4160704;28;20034;-61
2024/02/27 07:52:41;;;;;;;25.83;14.27;;;12.60;99.90;;;;;;4161328;28;20814;-55
2024/02/27 07:54:42;;;;;;;23.20;14.13;;;12.60;99.90;;;;;;4142986;28;20129;-61
2024/02/27 07:56:44;;;;;;;22.30;14.40;;;12.70;99.90;;;;;;4162256;28;20525;-63
2024/02/27 07:58:45;;;;;;;26.80;15.07;;;12.80;99.90;;;;;;4161060;28;20396;-57
2024/02/27 08:00:46;;;;;;;31.63;15.07;;;12.60;99.90;;;;;;4161462;28;20087;-63
2024/02/27 08:02:48;;;;;;;25.03;15.30;;;12.50;99.90;;;;;;4161030;28;20429;-60
2024/02/27 08:04:49;;;;;;;35.30;15.67;;;12.20;99.90;;;;;;4162142;28;20041;-63
2024/02/27 08:06:50;;;;;;;25.13;14.77;;;12.10;99.90;;;;;;4160769;28;20490;-62
2024/02/27 08:08:53;;;;;;;22.37;13.97;;;12.20;99.90;;;;;;4161196;28;20547;-63
2024/02/27 08:10:57;;;;;;;27.63;15.23;;;12.70;99.90;;;;;;4159871;28;20033;-62
2024/02/27 08:12:59;;;;;;;25.57;14.60;;;12.60;99.90;;;;;;4161757;28;20030;-60
2024/02/27 08:15:00;;;;;;;29.93;13.87;;;13.00;99.90;;;;;;4160425;28;20448;-62
2024/02/27 08:17:01;;;;;;;24.50;14.57;;;13.80;99.90;;;;;;4161473;28;20462;-62
2024/02/27 08:19:05;;;;;;;26.60;13.97;;;14.10;99.90;;;;;;4160526;28;20030;-62
2024/02/27 08:21:07;;;;;;;29.17;15.53;;;13.80;99.90;;;;;;4160836;28;20025;-63
2024/02/27 08:23:09;;;;;;;19.60;11.93;;;13.80;99.90;;;;;;4160576;28;20941;-61
2024/02/27 08:25:11;;;;;;;23.00;12.77;;;13.40;99.90;;;;;;4160414;28;20026;-62
2024/02/27 08:27:12;;;;;;;25.20;13.60;;;13.20;99.90;;;;;;4161172;28;20186;-58
2024/02/27 08:29:13;;;;;;;21.53;13.07;;;13.00;99.90;;;;;;4160644;28;20083;-63
2024/02/27 08:31:15;;;;;;;23.87;13.97;;;13.00;99.90;;;;;;4161661;28;20025;-61
2024/02/27 08:33:16;;;;;;;22.97;13.00;;;13.30;99.90;;;;;;4160350;28;20091;-61
2024/02/27 08:35:19;;;;;;;20.73;12.90;;;13.60;99.90;;;;;;4161657;28;20029;-59
2024/02/27 08:37:21;;;;;;;26.70;14.17;;;13.50;99.90;;;;;;4159607;28;20037;-60
2024/02/27 08:39:22;;;;;;;20.57;12.93;;;13.50;99.90;;;;;;4160873;28;20091;-63
2024/02/27 08:41:24;;;;;;;23.87;12.50;;;13.40;99.90;;;;;;4159454;28;20080;-62
2024/02/27 08:43:25;;;;;;;23.40;13.13;;;13.60;99.90;;;;;;4160926;28;20030;-62
2024/02/27 08:45:26;;;;;;;23.40;13.30;;;13.60;99.90;;;;;;4159652;28;20555;-63
2024/02/27 08:47:27;;;;;;;20.40;11.93;;;13.70;99.90;;;;;;4160530;28;20091;-59
2024/02/27 08:49:28;;;;;;;17.80;11.63;;;13.50;99.90;;;;;;4160201;28;20029;-59
2024/02/27 08:51:31;;;;;;;18.53;11.00;;;13.40;99.90;;;;;;4159985;28;20060;-62
2024/02/27 08:53:32;;;;;;;19.57;11.33;;;13.30;99.90;;;;;;4160109;28;20099;-59
2024/02/27 08:55:33;;;;;;;18.43;11.97;;;13.40;99.90;;;;;;4159709;28;20034;-61
2024/02/27 08:57:35;;;;;;;22.57;12.53;;;13.40;99.90;;;;;;4161480;28;20033;-60
2024/02/27 08:59:37;;;;;;;17.93;11.33;;;13.50;99.90;;;;;;4159239;28;20401;-57
2024/02/27 09:01:38;;;;;;;25.80;12.17;;;13.70;99.90;;;;;;4160423;28;20547;-57
2024/02/27 09:03:41;;;;;;;27.53;12.70;;;13.80;99.90;;;;;;4159328;28;20143;-59
2024/02/27 09:05:43;;;;;;;23.63;13.63;;;13.80;99.90;;;;;;4161026;28;20464;-62
2024/02/27 09:07:44;;;;;;;26.70;14.37;;;13.90;99.90;;;;;;4159006;28;20186;-61
2024/02/27 09:09:46;;;;;;;24.20;14.70;;;13.80;99.90;;;;;;4160982;28;20021;-63
2024/02/27 09:11:48;;;;;;;24.47;13.97;;;13.80;99.90;;;;;;4158768;28;20088;-59
2024/02/27 09:13:49;;;;;;;22.13;13.13;;;14.00;99.90;;;;;;4160398;28;20037;-62
2024/02/27 09:15:51;;;;;;;24.50;12.80;;;14.00;99.90;;;;;;4158937;28;20069;-56
2024/02/27 09:17:52;;;;;;;18.00;10.77;;;14.20;99.90;;;;;;4160130;28;20076;-58
2024/02/27 09:19:53;;;;;;;18.33;11.00;;;14.20;99.90;;;;;;4159463;28;20030;-62
2024/02/27 09:21:54;;;;;;;14.77;9.15;;;14.30;99.90;;;;;;4160335;28;20072;-61
2024/02/27 09:23:56;;;;;;;15.90;9.53;;;14.50;99.90;;;;;;4159781;28;20636;-61
2024/02/27 09:25:57;;;;;;;13.97;7.43;;;14.60;99.90;;;;;;4159803;28;20118;-62
2024/02/27 09:27:58;;;;;;;13.23;7.67;;;14.90;99.90;;;;;;4160586;28;20393;-59
2024/02/27 09:29:59;;;;;;;13.23;7.43;;;15.00;99.90;;;;;;4159093;28;20046;-61
2024/02/27 09:32:01;;;;;;;10.32;6.38;;;15.20;99.90;;;;;;4160063;28;20052;-61
2024/02/27 09:34:02;;;;;;;15.18;6.47;;;15.40;99.90;;;;;;4159267;28;20038;-61
2024/02/27 09:36:04;;;;;;;10.23;6.30;;;15.60;99.90;;;;;;4160085;28;20079;-58
2024/02/27 09:38:05;;;;;;;11.90;6.57;;;15.70;99.90;;;;;;4159525;28;20076;-62
2024/02/27 09:40:08;;;;;;;12.35;6.72;;;15.90;99.90;;;;;;4160271;28;20033;-61
2024/02/27 09:42:12;;;;;;;8.95;5.65;;;16.00;99.90;;;;;;4158900;28;20107;-55
2024/02/27 09:44:13;;;;;;;10.13;6.10;;;16.10;99.90;;;;;;4160889;28;20041;-62
2024/02/27 09:46:15;;;;;;;13.93;6.20;;;16.20;99.90;;;;;;4159602;28;20076;-62
2024/02/27 09:48:28;;;;;;;11.93;6.95;;;16.30;99.90;;;;;;4160723;28;20033;-56
2024/02/27 09:50:32;;;;;;;8.73;5.93;;;16.50;99.90;;;;;;4158769;28;20037;-60
2024/02/27 09:52:35;;;;;;;10.15;5.68;;;16.60;99.90;;;;;;4160355;28;20056;-61
2024/02/27 09:54:37;;;;;;;14.50;6.68;;;16.60;99.90;;;;;;4159877;28;20453;-63
2024/02/27 09:56:39;;;;;;;9.23;6.40;;;16.80;99.80;;;;;;4160098;28;20107;-62
2024/02/27 09:58:45;;;;;;;14.88;6.20;;;16.90;99.30;;;;;;4159902;28;20564;-61
2024/02/27 10:00:46;;;;;;;9.98;6.32;;;17.00;98.90;;;;;;4141896;28;20553;-64
2024/02/27 10:02:51;;;;;;;8.60;5.53;;;17.10;98.70;;;;;;4160324;28;20075;-63
2024/02/27 10:04:53;;;;;;;14.15;6.57;;;17.20;98.20;;;;;;4159069;28;20091;-63
2024/02/27 10:06:54;;;;;;;13.88;6.10;;;17.30;98.30;;;;;;4159842;28;20046;-62
2024/02/27 10:08:59;;;;;;;7.63;3.45;;;17.40;98.00;;;;;;4158912;28;20405;-61
2024/02/27 10:11:00;;;;;;;10.73;4.18;;;17.30;97.30;;;;;;4159787;28;20064;-62
2024/02/27 10:13:02;;;;;;;7.28;4.18;;;17.50;97.30;;;;;;4159351;28;20030;-63
2024/02/27 10:15:04;;;;;;;7.95;4.38;;;17.70;97.00;;;;;;4159807;28;20063;-63
2024/02/27 10:17:06;;;;;;;9.13;3.78;;;17.90;96.80;;;;;;4158869;28;20053;-63
2024/02/27 10:19:08;;;;;;;10.00;3.25;;;18.10;96.30;;;;;;4159780;28;20045;-58
2024/02/27 10:21:09;;;;;;;4.65;3.05;;;18.20;95.40;;;;;;4158845;28;20041;-59
2024/02/27 10:23:10;;;;;;;8.80;3.17;;;18.20;94.50;;;;;;4159812;28;20445;-62
2024/02/27 10:25:18;;;;;;;10.40;3.47;;;18.20;94.40;;;;;;4158613;28;20712;-62